Сообщение об ошибке

  • Warning: ini_set(): Headers already sent. You cannot change the session module's ini settings at this time in drupal_environment_initialize() (line 699 of /home/a/auditpro/2.auditpro.beget.tech/public_html/st/includes/bootstrap.inc).
  • Warning: ini_set(): Headers already sent. You cannot change the session module's ini settings at this time in drupal_environment_initialize() (line 700 of /home/a/auditpro/2.auditpro.beget.tech/public_html/st/includes/bootstrap.inc).
  • Warning: ini_set(): Headers already sent. You cannot change the session module's ini settings at this time in drupal_environment_initialize() (line 701 of /home/a/auditpro/2.auditpro.beget.tech/public_html/st/includes/bootstrap.inc).
  • Warning: ini_set(): Headers already sent. You cannot change the session module's ini settings at this time in drupal_environment_initialize() (line 704 of /home/a/auditpro/2.auditpro.beget.tech/public_html/st/includes/bootstrap.inc).
  • Warning: ini_set(): Headers already sent. You cannot change the session module's ini settings at this time in drupal_environment_initialize() (line 706 of /home/a/auditpro/2.auditpro.beget.tech/public_html/st/includes/bootstrap.inc).
  • Warning: ini_set(): Headers already sent. You cannot change the session module's ini settings at this time in include_once() (line 290 of /home/a/auditpro/2.auditpro.beget.tech/public_html/st/sites/default/settings.php).
  • Warning: ini_set(): Headers already sent. You cannot change the session module's ini settings at this time in include_once() (line 291 of /home/a/auditpro/2.auditpro.beget.tech/public_html/st/sites/default/settings.php).
  • Warning: ini_set(): Headers already sent. You cannot change the session module's ini settings at this time in include_once() (line 299 of /home/a/auditpro/2.auditpro.beget.tech/public_html/st/sites/default/settings.php).
  • Warning: ini_set(): Headers already sent. You cannot change the session module's ini settings at this time in include_once() (line 306 of /home/a/auditpro/2.auditpro.beget.tech/public_html/st/sites/default/settings.php).
  • Warning: ini_set(): Headers already sent. You cannot change the session module's ini settings at this time in drupal_settings_initialize() (line 826 of /home/a/auditpro/2.auditpro.beget.tech/public_html/st/includes/bootstrap.inc).
  • Warning: ini_set(): Headers already sent. You cannot change the session module's ini settings at this time in drupal_settings_initialize() (line 835 of /home/a/auditpro/2.auditpro.beget.tech/public_html/st/includes/bootstrap.inc).
  • Warning: session_name(): Cannot change session name when headers already sent in drupal_settings_initialize() (line 838 of /home/a/auditpro/2.auditpro.beget.tech/public_html/st/includes/bootstrap.inc).

Вохма

СКИДКИ НА СМАРТФОНЫ!

Карта отелей и гостиниц, располагающихся рядом с аэропортом Вохма :

Вохма Костромская область 58° 55' 1.56" N, 46° 43' 31.8" E
Вохма Костромская область 58° 55' 1.56" N, 46° 43' 31.8" E
Код аэродрома ИКАО
ZAX8
Код аэродрома RU
ЗАЬ8
Координаты
N58.91710° E046.72550°
Превышение над уровнем моря
160
Основная полоса
13/31
Курс магнитный
133/313
Длина основной ВПП
650
Ширина основной ВПП
30
Покрытие основной ВПП
Твёрдое (асфальт)
Освещение ВПП
Нет
Тип: 
Аэродром
Класс аэродрома: 
Принадлежность: 
ГА
Статус: 
Недействующий
Сайт: 
E-mail аэродрома: 
Страна: 
Россия
Регион: 
Костромская область
Город: 
Дополнительная информация: 

Скидки на навигаторы!

Найти трансфер

С помощью этой формы Вы можете найти трансфер из аэропорта Вохма в город, аэропорт или вокзал:

Погода в аэропортах:

Авиационная погода в Волгограде

Регион: 
Погода METAR: 
URWW 301930Z 17006MPS 4600 BR BKN034 00/M02 Q1013 R06/290055 TEMPO 0300 FZFG OVC002
Время наблюдения
2023-01-30T19:30:00Z
Температура C
0.0
Точка росы
-2.0
Направление ветра
170
Скорость ветра (узлы)
12
Метео видимость
2.86
Облачность
BKN
Нижняя граница облачности (футы)
3400
Явления погоды
BR
Условия полета
IFR
Аэропорт подробнее: 
BKN – значительная (рассеянная, разорванная) облачность;
BR – дымка (видимость от 1 до 9 км);

Авиационная погода в Витебске

Регион: 
Погода METAR: 
UMII 301021Z 20009G13MPS 4400 -SN BLSN OVC009 M01/M02 Q0995 TEMPO 2000 SN BKN005
Время наблюдения
2023-01-30T10:21:00Z
Температура C
-1.0
Точка росы
-2.0
Направление ветра
200
Скорость ветра (узлы)
17
Метео видимость
2.73
Облачность
OVC
Нижняя граница облачности (футы)
900
Явления погоды
-SN BLSN
Условия полета
IFR
OVC – сплошная облачность;
-SN – слабый снег, BLSN – метель низовая или общая;

Авиационная погода в Москве - Остафьево

Погода METAR: 
UUMO 301930Z 21006MPS 6000 -SN OVC019 M01/M04 Q0996 R25/520148 NOSIG RMK QFE732/0976
Время наблюдения
2023-01-30T19:30:00Z
Температура C
-1.0
Точка росы
-4.0
Направление ветра
210
Скорость ветра (узлы)
12
Метео видимость
3.73
Облачность
OVC
Нижняя граница облачности (футы)
1900
Явления погоды
-SN
Условия полета
MVFR
Аэропорт подробнее: 
OVC – сплошная облачность;
-SN – слабый снег;

Авиационная погода в Платове

Регион: 
Погода METAR: 
URRP 301930Z 13003MPS 4100 BR SCT045 02/02 Q1011 R23/CLRD70 NOSIG RMK QFE751/1001
Время наблюдения
2023-01-30T19:30:00Z
Температура C
2.0
Точка росы
2.0
Направление ветра
130
Скорость ветра (узлы)
6
Метео видимость
2.55
Облачность
SCT
Нижняя граница облачности (футы)
4500
Явления погоды
BR
Условия полета
IFR
Аэропорт подробнее: 
SCT – разбросанная отдельная облачность;
BR – дымка (видимость от 1 до 9 км);